sensor_id;sensor_type;location;lat;lon;timestamp;P1;durP1;ratioP1;P2;durP2;ratioP2
79047;SDS011;68680;50.764;6.120;2023-09-12T00:00:48;9.63;;;6.35;;
79047;SDS011;68680;50.764;6.120;2023-09-12T00:03:18;7.85;;;6.25;;
79047;SDS011;68680;50.764;6.120;2023-09-12T00:05:50;7.80;;;5.82;;
79047;SDS011;68680;50.764;6.120;2023-09-12T00:10:43;9.77;;;5.60;;
79047;SDS011;68680;50.764;6.120;2023-09-12T00:13:08;10.27;;;5.45;;
79047;SDS011;68680;50.764;6.120;2023-09-12T00:15:34;7.57;;;5.07;;
79047;SDS011;68680;50.764;6.120;2023-09-12T00:17:59;11.70;;;6.35;;
79047;SDS011;68680;50.764;6.120;2023-09-12T00:20:25;11.50;;;5.32;;
79047;SDS011;68680;50.764;6.120;2023-09-12T00:22:51;10.00;;;5.80;;
79047;SDS011;68680;50.764;6.120;2023-09-12T00:25:16;9.10;;;6.38;;
79047;SDS011;68680;50.764;6.120;2023-09-12T00:27:43;6.47;;;5.70;;
79047;SDS011;68680;50.764;6.120;2023-09-12T00:30:09;8.63;;;6.05;;
79047;SDS011;68680;50.764;6.120;2023-09-12T00:32:35;9.60;;;5.85;;
79047;SDS011;68680;50.764;6.120;2023-09-12T00:35:01;6.50;;;5.72;;
79047;SDS011;68680;50.764;6.120;2023-09-12T00:37:27;9.70;;;5.90;;
79047;SDS011;68680;50.764;6.120;2023-09-12T00:39:52;9.40;;;6.43;;
79047;SDS011;68680;50.764;6.120;2023-09-12T00:42:18;8.23;;;6.00;;
79047;SDS011;68680;50.764;6.120;2023-09-12T00:44:45;7.53;;;6.50;;
79047;SDS011;68680;50.764;6.120;2023-09-12T00:47:11;6.22;;;5.32;;
79047;SDS011;68680;50.764;6.120;2023-09-12T00:49:37;11.73;;;6.35;;
79047;SDS011;68680;50.764;6.120;2023-09-12T00:52:04;10.80;;;6.53;;
79047;SDS011;68680;50.764;6.120;2023-09-12T00:54:31;8.18;;;6.43;;
79047;SDS011;68680;50.764;6.120;2023-09-12T00:56:56;9.50;;;5.78;;
79047;SDS011;68680;50.764;6.120;2023-09-12T00:59:22;7.28;;;6.53;;
79047;SDS011;68680;50.764;6.120;2023-09-12T01:01:49;8.57;;;6.75;;
79047;SDS011;68680;50.764;6.120;2023-09-12T01:04:16;10.95;;;6.22;;
79047;SDS011;68680;50.764;6.120;2023-09-12T01:06:41;11.30;;;7.57;;
79047;SDS011;68680;50.764;6.120;2023-09-12T01:09:08;10.68;;;6.00;;
79047;SDS011;68680;50.764;6.120;2023-09-12T01:11:33;10.88;;;6.63;;
79047;SDS011;68680;50.764;6.120;2023-09-12T01:13:59;10.48;;;6.00;;
79047;SDS011;68680;50.764;6.120;2023-09-12T01:16:25;9.43;;;6.05;;
79047;SDS011;68680;50.764;6.120;2023-09-12T01:18:52;11.70;;;6.85;;
79047;SDS011;68680;50.764;6.120;2023-09-12T01:21:38;10.40;;;5.80;;
79047;SDS011;68680;50.764;6.120;2023-09-12T01:24:27;9.77;;;6.68;;
79047;SDS011;68680;50.764;6.120;2023-09-12T01:27:22;8.00;;;6.05;;
79047;SDS011;68680;50.764;6.120;2023-09-12T01:29:53;9.90;;;5.78;;
79047;SDS011;68680;50.764;6.120;2023-09-12T01:32:21;10.93;;;6.30;;
79047;SDS011;68680;50.764;6.120;2023-09-12T01:34:47;12.45;;;7.22;;
79047;SDS011;68680;50.764;6.120;2023-09-12T01:37:12;8.65;;;6.50;;
79047;SDS011;68680;50.764;6.120;2023-09-12T01:39:38;11.48;;;7.75;;
79047;SDS011;68680;50.764;6.120;2023-09-12T01:42:04;12.88;;;7.65;;
79047;SDS011;68680;50.764;6.120;2023-09-12T01:44:32;12.43;;;7.22;;
79047;SDS011;68680;50.764;6.120;2023-09-12T01:47:00;8.77;;;6.70;;
79047;SDS011;68680;50.764;6.120;2023-09-12T01:49:29;11.32;;;7.28;;
79047;SDS011;68680;50.764;6.120;2023-09-12T01:51:56;12.80;;;7.32;;
79047;SDS011;68680;50.764;6.120;2023-09-12T01:54:22;14.88;;;7.10;;
79047;SDS011;68680;50.764;6.120;2023-09-12T01:56:48;9.70;;;6.90;;
79047;SDS011;68680;50.764;6.120;2023-09-12T01:59:15;11.48;;;7.28;;
79047;SDS011;68680;50.764;6.120;2023-09-12T02:01:42;11.48;;;7.68;;
79047;SDS011;68680;50.764;6.120;2023-09-12T02:04:08;13.95;;;7.85;;
79047;SDS011;68680;50.764;6.120;2023-09-12T02:06:33;11.93;;;7.13;;
79047;SDS011;68680;50.764;6.120;2023-09-12T02:08:59;16.67;;;7.78;;
79047;SDS011;68680;50.764;6.120;2023-09-12T02:11:25;12.02;;;7.40;;
79047;SDS011;68680;50.764;6.120;2023-09-12T02:13:51;9.70;;;6.78;;
79047;SDS011;68680;50.764;6.120;2023-09-12T02:16:17;9.45;;;6.80;;
79047;SDS011;68680;50.764;6.120;2023-09-12T02:18:43;9.82;;;6.50;;
79047;SDS011;68680;50.764;6.120;2023-09-12T02:21:09;12.13;;;7.45;;
79047;SDS011;68680;50.764;6.120;2023-09-12T02:23:35;9.80;;;7.10;;
79047;SDS011;68680;50.764;6.120;2023-09-12T02:26:00;8.65;;;6.47;;
79047;SDS011;68680;50.764;6.120;2023-09-12T02:28:26;10.25;;;7.13;;
79047;SDS011;68680;50.764;6.120;2023-09-12T02:30:52;11.65;;;8.13;;
79047;SDS011;68680;50.764;6.120;2023-09-12T02:33:17;11.40;;;7.32;;
79047;SDS011;68680;50.764;6.120;2023-09-12T02:35:44;10.10;;;7.63;;
79047;SDS011;68680;50.764;6.120;2023-09-12T02:38:10;11.45;;;8.05;;
79047;SDS011;68680;50.764;6.120;2023-09-12T02:40:35;10.73;;;8.07;;
79047;SDS011;68680;50.764;6.120;2023-09-12T02:43:01;14.52;;;7.47;;
79047;SDS011;68680;50.764;6.120;2023-09-12T02:45:27;12.13;;;8.32;;
79047;SDS011;68680;50.764;6.120;2023-09-12T02:47:52;13.05;;;8.27;;
79047;SDS011;68680;50.764;6.120;2023-09-12T02:50:18;13.30;;;8.90;;
79047;SDS011;68680;50.764;6.120;2023-09-12T02:52:45;12.02;;;7.80;;
79047;SDS011;68680;50.764;6.120;2023-09-12T02:55:10;13.35;;;8.45;;
79047;SDS011;68680;50.764;6.120;2023-09-12T02:57:36;15.60;;;8.88;;
79047;SDS011;68680;50.764;6.120;2023-09-12T03:00:02;16.08;;;8.95;;
79047;SDS011;68680;50.764;6.120;2023-09-12T03:02:28;10.50;;;8.68;;
79047;SDS011;68680;50.764;6.120;2023-09-12T03:04:53;14.80;;;8.25;;
79047;SDS011;68680;50.764;6.120;2023-09-12T03:07:19;12.57;;;8.80;;
79047;SDS011;68680;50.764;6.120;2023-09-12T03:09:48;18.13;;;9.40;;
79047;SDS011;68680;50.764;6.120;2023-09-12T03:12:14;14.38;;;9.50;;
79047;SDS011;68680;50.764;6.120;2023-09-12T03:14:40;15.60;;;10.73;;
79047;SDS011;68680;50.764;6.120;2023-09-12T03:17:05;17.13;;;11.07;;
79047;SDS011;68680;50.764;6.120;2023-09-12T03:19:31;17.63;;;11.70;;
79047;SDS011;68680;50.764;6.120;2023-09-12T03:21:57;18.02;;;11.57;;
79047;SDS011;68680;50.764;6.120;2023-09-12T03:24:22;18.63;;;11.73;;
79047;SDS011;68680;50.764;6.120;2023-09-12T03:26:49;24.23;;;13.70;;
79047;SDS011;68680;50.764;6.120;2023-09-12T03:29:15;26.13;;;13.25;;
79047;SDS011;68680;50.764;6.120;2023-09-12T03:31:40;21.75;;;13.57;;
79047;SDS011;68680;50.764;6.120;2023-09-12T03:34:06;29.80;;;14.40;;
79047;SDS011;68680;50.764;6.120;2023-09-12T03:36:32;21.23;;;12.57;;
79047;SDS011;68680;50.764;6.120;2023-09-12T03:38:57;26.25;;;14.75;;
79047;SDS011;68680;50.764;6.120;2023-09-12T03:41:23;26.17;;;13.73;;
79047;SDS011;68680;50.764;6.120;2023-09-12T03:43:50;22.23;;;13.77;;
79047;SDS011;68680;50.764;6.120;2023-09-12T03:46:15;23.27;;;12.63;;
79047;SDS011;68680;50.764;6.120;2023-09-12T03:48:41;21.30;;;13.70;;
79047;SDS011;68680;50.764;6.120;2023-09-12T03:51:06;23.65;;;12.75;;
79047;SDS011;68680;50.764;6.120;2023-09-12T03:53:32;23.45;;;14.10;;
79047;SDS011;68680;50.764;6.120;2023-09-12T03:55:58;22.35;;;14.38;;
79047;SDS011;68680;50.764;6.120;2023-09-12T03:58:23;22.42;;;13.75;;
79047;SDS011;68680;50.764;6.120;2023-09-12T04:00:50;20.58;;;13.50;;
79047;SDS011;68680;50.764;6.120;2023-09-12T04:03:16;21.15;;;13.07;;
79047;SDS011;68680;50.764;6.120;2023-09-12T04:05:41;23.73;;;13.35;;
79047;SDS011;68680;50.764;6.120;2023-09-12T04:08:07;22.33;;;13.38;;
79047;SDS011;68680;50.764;6.120;2023-09-12T04:10:33;21.85;;;12.90;;
79047;SDS011;68680;50.764;6.120;2023-09-12T04:12:58;20.75;;;12.32;;
79047;SDS011;68680;50.764;6.120;2023-09-12T04:15:24;24.65;;;13.00;;
79047;SDS011;68680;50.764;6.120;2023-09-12T04:17:51;24.98;;;12.70;;
79047;SDS011;68680;50.764;6.120;2023-09-12T04:20:16;26.92;;;13.43;;
79047;SDS011;68680;50.764;6.120;2023-09-12T04:22:42;25.20;;;14.02;;
79047;SDS011;68680;50.764;6.120;2023-09-12T04:25:08;21.58;;;13.25;;
79047;SDS011;68680;50.764;6.120;2023-09-12T04:27:33;22.75;;;13.27;;
79047;SDS011;68680;50.764;6.120;2023-09-12T04:29:59;24.27;;;14.00;;
79047;SDS011;68680;50.764;6.120;2023-09-12T04:32:25;25.52;;;13.60;;
79047;SDS011;68680;50.764;6.120;2023-09-12T04:34:52;28.08;;;13.98;;
79047;SDS011;68680;50.764;6.120;2023-09-12T04:37:17;31.08;;;15.48;;
79047;SDS011;68680;50.764;6.120;2023-09-12T04:39:43;30.70;;;16.30;;
79047;SDS011;68680;50.764;6.120;2023-09-12T04:42:09;31.15;;;16.38;;
79047;SDS011;68680;50.764;6.120;2023-09-12T04:44:35;38.15;;;16.80;;
79047;SDS011;68680;50.764;6.120;2023-09-12T04:47:00;33.58;;;17.35;;
79047;SDS011;68680;50.764;6.120;2023-09-12T04:49:27;36.05;;;17.08;;
79047;SDS011;68680;50.764;6.120;2023-09-12T04:51:54;44.63;;;18.67;;
79047;SDS011;68680;50.764;6.120;2023-09-12T04:54:19;37.60;;;17.23;;
79047;SDS011;68680;50.764;6.120;2023-09-12T04:56:45;52.25;;;21.92;;
79047;SDS011;68680;50.764;6.120;2023-09-12T04:59:10;56.85;;;24.98;;
79047;SDS011;68680;50.764;6.120;2023-09-12T05:01:36;56.83;;;24.33;;
79047;SDS011;68680;50.764;6.120;2023-09-12T05:04:02;71.75;;;27.75;;
79047;SDS011;68680;50.764;6.120;2023-09-12T05:06:28;71.75;;;29.15;;
79047;SDS011;68680;50.764;6.120;2023-09-12T05:08:55;74.93;;;28.55;;
79047;SDS011;68680;50.764;6.120;2023-09-12T05:11:21;67.32;;;28.45;;
79047;SDS011;68680;50.764;6.120;2023-09-12T05:13:47;71.97;;;30.17;;
79047;SDS011;68680;50.764;6.120;2023-09-12T05:16:13;75.00;;;29.13;;
79047;SDS011;68680;50.764;6.120;2023-09-12T05:18:38;69.35;;;28.42;;
79047;SDS011;68680;50.764;6.120;2023-09-12T05:21:04;67.07;;;30.05;;
79047;SDS011;68680;50.764;6.120;2023-09-12T05:23:29;62.22;;;26.52;;
79047;SDS011;68680;50.764;6.120;2023-09-12T05:25:57;70.13;;;28.65;;
79047;SDS011;68680;50.764;6.120;2023-09-12T05:28:22;65.78;;;28.63;;
79047;SDS011;68680;50.764;6.120;2023-09-12T05:30:48;76.85;;;31.20;;
79047;SDS011;68680;50.764;6.120;2023-09-12T05:33:14;74.93;;;29.67;;
79047;SDS011;68680;50.764;6.120;2023-09-12T05:35:39;79.40;;;32.25;;
79047;SDS011;68680;50.764;6.120;2023-09-12T05:38:05;79.63;;;32.95;;
79047;SDS011;68680;50.764;6.120;2023-09-12T05:40:30;93.13;;;33.65;;
79047;SDS011;68680;50.764;6.120;2023-09-12T05:42:57;87.38;;;33.55;;
79047;SDS011;68680;50.764;6.120;2023-09-12T05:45:23;85.38;;;33.05;;
79047;SDS011;68680;50.764;6.120;2023-09-12T05:47:49;80.38;;;31.95;;
79047;SDS011;68680;50.764;6.120;2023-09-12T05:50:14;81.60;;;33.20;;
79047;SDS011;68680;50.764;6.120;2023-09-12T05:52:40;84.22;;;32.92;;
79047;SDS011;68680;50.764;6.120;2023-09-12T05:55:06;83.18;;;32.72;;
79047;SDS011;68680;50.764;6.120;2023-09-12T05:57:32;90.93;;;35.38;;
79047;SDS011;68680;50.764;6.120;2023-09-12T05:59:59;90.72;;;33.33;;
79047;SDS011;68680;50.764;6.120;2023-09-12T06:02:24;79.75;;;31.73;;
79047;SDS011;68680;50.764;6.120;2023-09-12T06:04:50;70.93;;;29.85;;
79047;SDS011;68680;50.764;6.120;2023-09-12T06:07:16;78.85;;;31.13;;
79047;SDS011;68680;50.764;6.120;2023-09-12T06:09:41;60.00;;;28.45;;
79047;SDS011;68680;50.764;6.120;2023-09-12T06:12:07;65.50;;;28.92;;
79047;SDS011;68680;50.764;6.120;2023-09-12T06:14:33;65.18;;;28.52;;
79047;SDS011;68680;50.764;6.120;2023-09-12T06:17:00;63.03;;;27.35;;
79047;SDS011;68680;50.764;6.120;2023-09-12T06:19:25;72.22;;;29.73;;
79047;SDS011;68680;50.764;6.120;2023-09-12T06:21:51;72.22;;;30.95;;
79047;SDS011;68680;50.764;6.120;2023-09-12T06:24:18;71.15;;;29.63;;
79047;SDS011;68680;50.764;6.120;2023-09-12T06:26:45;68.30;;;28.92;;
79047;SDS011;68680;50.764;6.120;2023-09-12T06:29:10;74.50;;;29.45;;
79047;SDS011;68680;50.764;6.120;2023-09-12T06:31:36;72.00;;;30.17;;
79047;SDS011;68680;50.764;6.120;2023-09-12T06:34:03;73.00;;;31.52;;
79047;SDS011;68680;50.764;6.120;2023-09-12T06:36:29;76.32;;;32.08;;
79047;SDS011;68680;50.764;6.120;2023-09-12T06:38:54;72.20;;;31.92;;
79047;SDS011;68680;50.764;6.120;2023-09-12T06:41:20;72.70;;;31.30;;
79047;SDS011;68680;50.764;6.120;2023-09-12T06:43:46;81.63;;;32.30;;
79047;SDS011;68680;50.764;6.120;2023-09-12T06:46:11;72.50;;;32.28;;
79047;SDS011;68680;50.764;6.120;2023-09-12T06:48:37;69.05;;;29.63;;
79047;SDS011;68680;50.764;6.120;2023-09-12T06:51:06;71.10;;;31.98;;
79047;SDS011;68680;50.764;6.120;2023-09-12T06:53:33;71.65;;;30.65;;
79047;SDS011;68680;50.764;6.120;2023-09-12T06:55:59;69.13;;;30.60;;
79047;SDS011;68680;50.764;6.120;2023-09-12T06:58:25;71.68;;;30.38;;
79047;SDS011;68680;50.764;6.120;2023-09-12T07:00:50;63.50;;;29.30;;
79047;SDS011;68680;50.764;6.120;2023-09-12T07:03:16;67.43;;;30.42;;
79047;SDS011;68680;50.764;6.120;2023-09-12T07:05:42;67.15;;;29.88;;
79047;SDS011;68680;50.764;6.120;2023-09-12T07:08:09;69.90;;;31.20;;
79047;SDS011;68680;50.764;6.120;2023-09-12T07:10:34;60.55;;;28.02;;
79047;SDS011;68680;50.764;6.120;2023-09-12T07:13:00;62.83;;;30.60;;
79047;SDS011;68680;50.764;6.120;2023-09-12T07:15:26;72.55;;;30.98;;
79047;SDS011;68680;50.764;6.120;2023-09-12T07:17:51;62.72;;;30.15;;
79047;SDS011;68680;50.764;6.120;2023-09-12T07:20:17;71.75;;;30.33;;
79047;SDS011;68680;50.764;6.120;2023-09-12T07:22:43;66.45;;;30.05;;
79047;SDS011;68680;50.764;6.120;2023-09-12T07:25:10;66.75;;;31.55;;
79047;SDS011;68680;50.764;6.120;2023-09-12T07:27:35;65.70;;;28.77;;
79047;SDS011;68680;50.764;6.120;2023-09-12T07:30:01;66.57;;;31.00;;
79047;SDS011;68680;50.764;6.120;2023-09-12T07:32:27;61.70;;;30.23;;
79047;SDS011;68680;50.764;6.120;2023-09-12T07:34:52;65.47;;;29.83;;
79047;SDS011;68680;50.764;6.120;2023-09-12T07:37:18;56.33;;;29.75;;
79047;SDS011;68680;50.764;6.120;2023-09-12T07:39:43;64.45;;;28.17;;
79047;SDS011;68680;50.764;6.120;2023-09-12T07:42:10;68.15;;;32.00;;
79047;SDS011;68680;50.764;6.120;2023-09-12T07:44:36;64.72;;;28.77;;
79047;SDS011;68680;50.764;6.120;2023-09-12T07:47:02;55.97;;;28.23;;
79047;SDS011;68680;50.764;6.120;2023-09-12T07:49:27;58.13;;;28.30;;
79047;SDS011;68680;50.764;6.120;2023-09-12T07:51:53;60.40;;;27.17;;
79047;SDS011;68680;50.764;6.120;2023-09-12T07:54:18;57.15;;;27.58;;
79047;SDS011;68680;50.764;6.120;2023-09-12T07:56:44;60.17;;;28.30;;
79047;SDS011;68680;50.764;6.120;2023-09-12T07:59:11;39.13;;;22.17;;
79047;SDS011;68680;50.764;6.120;2023-09-12T08:01:36;40.03;;;20.48;;
79047;SDS011;68680;50.764;6.120;2023-09-12T08:04:02;36.55;;;19.90;;
79047;SDS011;68680;50.764;6.120;2023-09-12T08:06:28;40.83;;;19.42;;
79047;SDS011;68680;50.764;6.120;2023-09-12T08:08:54;39.28;;;20.17;;
79047;SDS011;68680;50.764;6.120;2023-09-12T08:11:19;38.35;;;20.48;;
79047;SDS011;68680;50.764;6.120;2023-09-12T08:13:48;36.30;;;20.70;;
79047;SDS011;68680;50.764;6.120;2023-09-12T08:16:15;40.03;;;20.52;;
79047;SDS011;68680;50.764;6.120;2023-09-12T08:18:41;37.65;;;20.10;;
79047;SDS011;68680;50.764;6.120;2023-09-12T08:21:07;37.38;;;20.60;;
79047;SDS011;68680;50.764;6.120;2023-09-12T08:23:32;51.33;;;26.20;;
79047;SDS011;68680;50.764;6.120;2023-09-12T08:25:59;47.42;;;26.55;;
79047;SDS011;68680;50.764;6.120;2023-09-12T08:28:25;52.38;;;28.33;;
79047;SDS011;68680;50.764;6.120;2023-09-12T08:30:50;44.30;;;25.88;;
79047;SDS011;68680;50.764;6.120;2023-09-12T08:33:17;45.38;;;26.08;;
79047;SDS011;68680;50.764;6.120;2023-09-12T08:35:43;44.95;;;27.80;;
79047;SDS011;68680;50.764;6.120;2023-09-12T08:38:08;50.13;;;28.45;;
79047;SDS011;68680;50.764;6.120;2023-09-12T08:40:34;46.25;;;26.63;;
79047;SDS011;68680;50.764;6.120;2023-09-12T08:43:00;41.20;;;24.67;;
79047;SDS011;68680;50.764;6.120;2023-09-12T08:45:26;45.95;;;27.80;;
79047;SDS011;68680;50.764;6.120;2023-09-12T08:47:53;50.00;;;29.35;;
79047;SDS011;68680;50.764;6.120;2023-09-12T08:50:21;48.20;;;28.00;;
79047;SDS011;68680;50.764;6.120;2023-09-12T08:52:47;46.47;;;29.17;;
79047;SDS011;68680;50.764;6.120;2023-09-12T08:55:13;47.13;;;27.40;;
79047;SDS011;68680;50.764;6.120;2023-09-12T08:57:39;52.75;;;29.65;;
79047;SDS011;68680;50.764;6.120;2023-09-12T09:00:06;49.00;;;27.95;;
79047;SDS011;68680;50.764;6.120;2023-09-12T09:02:34;44.55;;;27.02;;
79047;SDS011;68680;50.764;6.120;2023-09-12T09:05:00;43.38;;;27.85;;
79047;SDS011;68680;50.764;6.120;2023-09-12T09:07:28;42.97;;;27.98;;
79047;SDS011;68680;50.764;6.120;2023-09-12T09:09:54;46.35;;;27.10;;
79047;SDS011;68680;50.764;6.120;2023-09-12T09:12:21;47.92;;;27.95;;
79047;SDS011;68680;50.764;6.120;2023-09-12T09:14:46;39.33;;;25.65;;
79047;SDS011;68680;50.764;6.120;2023-09-12T09:17:12;39.65;;;24.55;;
79047;SDS011;68680;50.764;6.120;2023-09-12T09:19:42;34.33;;;22.17;;
79047;SDS011;68680;50.764;6.120;2023-09-12T09:22:09;31.17;;;20.60;;
79047;SDS011;68680;50.764;6.120;2023-09-12T09:24:36;34.33;;;19.95;;
79047;SDS011;68680;50.764;6.120;2023-09-12T09:27:02;35.25;;;22.13;;
79047;SDS011;68680;50.764;6.120;2023-09-12T09:29:28;43.50;;;22.15;;
79047;SDS011;68680;50.764;6.120;2023-09-12T09:31:54;39.63;;;23.20;;
79047;SDS011;68680;50.764;6.120;2023-09-12T09:34:20;31.98;;;21.80;;
79047;SDS011;68680;50.764;6.120;2023-09-12T09:36:47;31.90;;;20.73;;
79047;SDS011;68680;50.764;6.120;2023-09-12T09:39:13;36.88;;;21.52;;
79047;SDS011;68680;50.764;6.120;2023-09-12T09:41:41;30.85;;;20.23;;
79047;SDS011;68680;50.764;6.120;2023-09-12T09:44:11;31.52;;;18.90;;
79047;SDS011;68680;50.764;6.120;2023-09-12T09:46:38;25.48;;;16.67;;
79047;SDS011;68680;50.764;6.120;2023-09-12T09:49:04;20.77;;;14.05;;
79047;SDS011;68680;50.764;6.120;2023-09-12T09:51:29;21.40;;;13.98;;
79047;SDS011;68680;50.764;6.120;2023-09-12T09:53:55;21.45;;;13.55;;
79047;SDS011;68680;50.764;6.120;2023-09-12T09:56:21;21.05;;;12.45;;
79047;SDS011;68680;50.764;6.120;2023-09-12T09:58:48;17.00;;;12.35;;
79047;SDS011;68680;50.764;6.120;2023-09-12T10:01:17;16.33;;;11.73;;
79047;SDS011;68680;50.764;6.120;2023-09-12T10:03:43;19.10;;;13.65;;
79047;SDS011;68680;50.764;6.120;2023-09-12T10:06:11;17.25;;;12.60;;
79047;SDS011;68680;50.764;6.120;2023-09-12T10:08:37;17.60;;;12.43;;
79047;SDS011;68680;50.764;6.120;2023-09-12T10:11:05;20.67;;;11.98;;
79047;SDS011;68680;50.764;6.120;2023-09-12T10:13:31;17.17;;;11.63;;
79047;SDS011;68680;50.764;6.120;2023-09-12T10:16:01;15.40;;;12.05;;
79047;SDS011;68680;50.764;6.120;2023-09-12T10:18:27;24.70;;;17.50;;
79047;SDS011;68680;50.764;6.120;2023-09-12T10:20:58;16.70;;;13.57;;
79047;SDS011;68680;50.764;6.120;2023-09-12T10:23:30;31.38;;;21.98;;
79047;SDS011;68680;50.764;6.120;2023-09-12T10:26:01;16.88;;;13.00;;
79047;SDS011;68680;50.764;6.120;2023-09-12T10:28:28;17.13;;;13.45;;
79047;SDS011;68680;50.764;6.120;2023-09-12T10:30:54;19.23;;;13.90;;
79047;SDS011;68680;50.764;6.120;2023-09-12T10:33:26;19.02;;;13.95;;
79047;SDS011;68680;50.764;6.120;2023-09-12T10:35:52;20.15;;;15.45;;
79047;SDS011;68680;50.764;6.120;2023-09-12T10:38:18;20.60;;;15.75;;
79047;SDS011;68680;50.764;6.120;2023-09-12T10:40:48;19.40;;;14.48;;
79047;SDS011;68680;50.764;6.120;2023-09-12T10:43:14;28.48;;;19.77;;
79047;SDS011;68680;50.764;6.120;2023-09-12T10:45:40;26.85;;;20.15;;
79047;SDS011;68680;50.764;6.120;2023-09-12T10:48:08;30.33;;;20.65;;
79047;SDS011;68680;50.764;6.120;2023-09-12T10:50:36;27.77;;;20.70;;
79047;SDS011;68680;50.764;6.120;2023-09-12T10:53:10;27.42;;;19.35;;
79047;SDS011;68680;50.764;6.120;2023-09-12T10:55:36;30.60;;;21.13;;
79047;SDS011;68680;50.764;6.120;2023-09-12T10:58:03;28.60;;;20.70;;
79047;SDS011;68680;50.764;6.120;2023-09-12T11:00:29;31.13;;;21.17;;
79047;SDS011;68680;50.764;6.120;2023-09-12T11:02:55;28.02;;;19.73;;
79047;SDS011;68680;50.764;6.120;2023-09-12T11:05:38;28.98;;;21.05;;
79047;SDS011;68680;50.764;6.120;2023-09-12T11:08:16;30.13;;;20.08;;
79047;SDS011;68680;50.764;6.120;2023-09-12T11:10:41;25.25;;;18.27;;
79047;SDS011;68680;50.764;6.120;2023-09-12T11:13:07;27.30;;;18.42;;
79047;SDS011;68680;50.764;6.120;2023-09-12T11:15:47;26.42;;;18.38;;
79047;SDS011;68680;50.764;6.120;2023-09-12T11:18:37;27.48;;;20.90;;
79047;SDS011;68680;50.764;6.120;2023-09-12T11:21:40;23.25;;;17.92;;
79047;SDS011;68680;50.764;6.120;2023-09-12T11:24:07;24.15;;;16.52;;
79047;SDS011;68680;50.764;6.120;2023-09-12T11:26:33;29.45;;;16.67;;
79047;SDS011;68680;50.764;6.120;2023-09-12T11:29:03;24.10;;;16.33;;
79047;SDS011;68680;50.764;6.120;2023-09-12T11:31:35;19.73;;;14.48;;
79047;SDS011;68680;50.764;6.120;2023-09-12T11:34:01;24.70;;;15.63;;
79047;SDS011;68680;50.764;6.120;2023-09-12T11:36:27;24.85;;;16.42;;
79047;SDS011;68680;50.764;6.120;2023-09-12T11:38:55;22.45;;;16.13;;
79047;SDS011;68680;50.764;6.120;2023-09-12T11:41:39;24.67;;;15.00;;
79047;SDS011;68680;50.764;6.120;2023-09-12T11:44:05;20.67;;;14.68;;
79047;SDS011;68680;50.764;6.120;2023-09-12T11:46:32;20.80;;;13.98;;
79047;SDS011;68680;50.764;6.120;2023-09-12T11:49:00;19.23;;;13.93;;
79047;SDS011;68680;50.764;6.120;2023-09-12T11:51:26;21.20;;;13.70;;
79047;SDS011;68680;50.764;6.120;2023-09-12T11:53:53;21.27;;;15.68;;
79047;SDS011;68680;50.764;6.120;2023-09-12T11:56:19;23.90;;;16.63;;
79047;SDS011;68680;50.764;6.120;2023-09-12T11:58:44;20.58;;;15.77;;
79047;SDS011;68680;50.764;6.120;2023-09-12T12:01:11;19.00;;;14.38;;
79047;SDS011;68680;50.764;6.120;2023-09-12T12:03:37;21.70;;;14.18;;
79047;SDS011;68680;50.764;6.120;2023-09-12T12:06:03;20.17;;;14.73;;
79047;SDS011;68680;50.764;6.120;2023-09-12T12:08:29;18.20;;;13.30;;
79047;SDS011;68680;50.764;6.120;2023-09-12T12:10:57;20.75;;;14.30;;
79047;SDS011;68680;50.764;6.120;2023-09-12T12:13:23;18.30;;;13.82;;
79047;SDS011;68680;50.764;6.120;2023-09-12T12:15:49;17.25;;;13.85;;
79047;SDS011;68680;50.764;6.120;2023-09-12T12:18:15;16.42;;;13.88;;
79047;SDS011;68680;50.764;6.120;2023-09-12T12:20:41;20.23;;;14.93;;
79047;SDS011;68680;50.764;6.120;2023-09-12T12:23:07;18.92;;;15.85;;
79047;SDS011;68680;50.764;6.120;2023-09-12T12:25:33;26.52;;;15.85;;
79047;SDS011;68680;50.764;6.120;2023-09-12T12:28:00;20.48;;;14.98;;
79047;SDS011;68680;50.764;6.120;2023-09-12T12:30:29;17.48;;;14.27;;
79047;SDS011;68680;50.764;6.120;2023-09-12T12:32:55;21.42;;;14.98;;
79047;SDS011;68680;50.764;6.120;2023-09-12T12:35:22;20.58;;;14.90;;
79047;SDS011;68680;50.764;6.120;2023-09-12T12:37:48;20.25;;;15.73;;
79047;SDS011;68680;50.764;6.120;2023-09-12T12:40:15;17.67;;;14.45;;
79047;SDS011;68680;50.764;6.120;2023-09-12T12:42:41;19.15;;;13.80;;
79047;SDS011;68680;50.764;6.120;2023-09-12T12:45:12;16.77;;;14.25;;
79047;SDS011;68680;50.764;6.120;2023-09-12T12:47:38;18.13;;;14.25;;
79047;SDS011;68680;50.764;6.120;2023-09-12T12:50:07;22.88;;;17.33;;
79047;SDS011;68680;50.764;6.120;2023-09-12T12:52:33;15.95;;;11.27;;
79047;SDS011;68680;50.764;6.120;2023-09-12T12:55:03;15.10;;;12.25;;
79047;SDS011;68680;50.764;6.120;2023-09-12T12:57:29;15.93;;;12.70;;
79047;SDS011;68680;50.764;6.120;2023-09-12T12:59:55;18.58;;;11.43;;
79047;SDS011;68680;50.764;6.120;2023-09-12T13:02:22;12.48;;;10.38;;
79047;SDS011;68680;50.764;6.120;2023-09-12T13:04:47;16.33;;;11.20;;
79047;SDS011;68680;50.764;6.120;2023-09-12T13:07:13;12.07;;;10.30;;
79047;SDS011;68680;50.764;6.120;2023-09-12T13:09:40;11.02;;;8.63;;
79047;SDS011;68680;50.764;6.120;2023-09-12T13:12:05;10.68;;;7.97;;
79047;SDS011;68680;50.764;6.120;2023-09-12T13:14:31;12.80;;;7.78;;
79047;SDS011;68680;50.764;6.120;2023-09-12T13:16:57;9.73;;;6.78;;
79047;SDS011;68680;50.764;6.120;2023-09-12T13:19:24;10.25;;;6.90;;
79047;SDS011;68680;50.764;6.120;2023-09-12T13:21:50;21.45;;;7.55;;
79047;SDS011;68680;50.764;6.120;2023-09-12T13:24:16;11.77;;;6.93;;
79047;SDS011;68680;50.764;6.120;2023-09-12T13:26:41;8.45;;;6.03;;
79047;SDS011;68680;50.764;6.120;2023-09-12T13:29:07;11.10;;;6.43;;
79047;SDS011;68680;50.764;6.120;2023-09-12T13:31:32;8.68;;;6.10;;
79047;SDS011;68680;50.764;6.120;2023-09-12T13:33:58;7.93;;;7.07;;
79047;SDS011;68680;50.764;6.120;2023-09-12T13:36:25;7.70;;;6.47;;
79047;SDS011;68680;50.764;6.120;2023-09-12T13:38:50;9.10;;;6.15;;
79047;SDS011;68680;50.764;6.120;2023-09-12T13:41:16;10.30;;;5.55;;
79047;SDS011;68680;50.764;6.120;2023-09-12T13:43:42;9.30;;;5.45;;
79047;SDS011;68680;50.764;6.120;2023-09-12T13:46:07;9.95;;;5.95;;
79047;SDS011;68680;50.764;6.120;2023-09-12T13:48:33;6.85;;;5.85;;
79047;SDS011;68680;50.764;6.120;2023-09-12T13:50:58;8.38;;;5.57;;
79047;SDS011;68680;50.764;6.120;2023-09-12T13:53:25;5.47;;;4.72;;
79047;SDS011;68680;50.764;6.120;2023-09-12T13:55:51;7.03;;;5.50;;
79047;SDS011;68680;50.764;6.120;2023-09-12T13:58:16;6.18;;;5.53;;
79047;SDS011;68680;50.764;6.120;2023-09-12T14:00:42;8.02;;;6.20;;
79047;SDS011;68680;50.764;6.120;2023-09-12T14:03:08;6.85;;;5.55;;
79047;SDS011;68680;50.764;6.120;2023-09-12T14:05:33;8.90;;;5.72;;
79047;SDS011;68680;50.764;6.120;2023-09-12T14:07:59;7.10;;;6.15;;
79047;SDS011;68680;50.764;6.120;2023-09-12T14:10:26;8.32;;;5.40;;
79047;SDS011;68680;50.764;6.120;2023-09-12T14:12:51;6.93;;;6.22;;
79047;SDS011;68680;50.764;6.120;2023-09-12T14:15:17;8.50;;;6.00;;
79047;SDS011;68680;50.764;6.120;2023-09-12T14:17:42;8.18;;;5.40;;
79047;SDS011;68680;50.764;6.120;2023-09-12T14:20:08;5.32;;;4.82;;
79047;SDS011;68680;50.764;6.120;2023-09-12T14:22:35;7.65;;;5.70;;
79047;SDS011;68680;50.764;6.120;2023-09-12T14:25:01;9.50;;;6.40;;
79047;SDS011;68680;50.764;6.120;2023-09-12T14:27:28;7.47;;;6.50;;